Time;durP1;ratioP1;P1;durP2;ratioP2;P2;SDS_P1;SDS_P2;PMS_P1;PMS_P2;Temp;Humidity;BMP_temperature;BMP_pressure;BME280_temperature;BME280_humidity;BME280_pressure;Samples;Min_cycle;Max_cycle;Signal;HPM_P1;HPM_P2
2022/08/04 00:00:11;;;;;;;0.95;0.57;;;17.90;99.90;;;;;;4960449;28;20119;-85
2022/08/04 00:03:02;;;;;;;4.90;0.65;;;18.60;99.90;;;;;;4961702;28;20101;-84
2022/08/04 00:05:57;;;;;;;4.25;0.75;;;18.60;99.90;;;;;;4967229;28;20117;-84
2022/08/04 00:08:34;;;;;;;0.90;0.38;;;;;;;;;;4965190;28;20072;-85
2022/08/04 00:11:00;;;;;;;0.80;0.50;;;17.80;99.90;;;;;;4962716;28;20065;-84
2022/08/04 00:13:35;;;;;;;1.45;0.63;;;17.90;99.90;;;;;;4963487;28;20026;-84
2022/08/04 00:16:07;;;;;;;1.95;0.60;;;17.60;99.90;;;;;;4958240;28;20546;-84
2022/08/04 00:18:38;;;;;;;1.38;0.70;;;17.70;99.90;;;;;;4957400;28;20085;-85
2022/08/04 00:21:05;;;;;;;1.17;0.40;;;17.80;99.90;;;;;;4963308;28;20027;-84
2022/08/04 00:23:34;;;;;;;2.63;0.80;;;18.50;99.90;;;;;;4967862;28;20031;-86
2022/08/04 00:26:00;;;;;;;1.42;0.70;;;;;;;;;;4967640;28;20023;-86
2022/08/04 00:28:27;;;;;;;1.63;0.60;;;17.70;99.90;;;;;;4969371;28;20078;-84
2022/08/04 00:30:54;;;;;;;1.58;0.55;;;;;;;;;;4963203;28;20050;-85
2022/08/04 00:33:20;;;;;;;2.00;0.60;;;;;;;;;;4964101;28;20646;-84
2022/08/04 00:35:47;;;;;;;0.68;0.30;;;17.70;99.90;;;;;;4965682;28;20043;-84
2022/08/04 00:38:18;;;;;;;0.95;0.63;;;17.50;99.90;;;;;;4968846;28;20118;-85
2022/08/04 00:40:47;;;;;;;1.10;0.40;;;17.70;99.90;;;;;;4965400;28;20053;-83
2022/08/04 00:43:27;;;;;;;1.58;0.50;;;18.00;99.90;;;;;;4970676;28;20137;-84
2022/08/04 00:45:53;;;;;;;1.70;0.73;;;;;;;;;;4960411;28;21186;-85
2022/08/04 00:48:43;;;;;;;1.10;0.82;;;17.50;99.90;;;;;;4963312;28;20034;-85
2022/08/04 00:51:34;;;;;;;3.08;0.38;;;17.10;99.90;;;;;;4965026;28;20169;-85
2022/08/04 00:54:15;;;;;;;3.83;0.40;;;18.00;99.90;;;;;;4963445;28;20034;-85
2022/08/04 00:57:19;;;;;;;1.40;0.55;;;18.10;99.90;;;;;;4963979;28;20277;-84
2022/08/04 00:59:47;;;;;;;0.80;0.38;;;17.10;99.90;;;;;;4968768;28;20027;-85
2022/08/04 01:02:13;;;;;;;1.30;0.52;;;;;;;;;;4964814;28;20034;-86
2022/08/04 01:04:42;;;;;;;1.23;0.55;;;;;;;;;;4961150;28;20022;-86
2022/08/04 01:07:29;;;;;;;0.57;0.38;;;17.50;99.90;;;;;;4964547;28;20041;-85
2022/08/04 01:10:23;;;;;;;2.15;0.50;;;17.30;99.90;;;;;;4963693;28;20031;-85
2022/08/04 01:13:07;;;;;;;1.25;0.88;;;17.10;99.90;;;;;;4960973;28;20090;-86
2022/08/04 01:15:45;;;;;;;1.13;0.60;;;18.10;99.90;;;;;;4964877;28;20070;-85
2022/08/04 01:18:22;;;;;;;0.95;0.40;;;17.40;99.90;;;;;;4962615;28;20114;-86
2022/08/04 01:21:22;;;;;;;1.15;0.63;;;17.50;99.90;;;;;;4959927;28;20357;-86
2022/08/04 01:24:25;;;;;;;2.58;0.60;;;17.20;99.90;;;;;;4963781;28;20038;-83
2022/08/04 01:27:25;;;;;;;1.55;0.47;;;17.40;99.90;;;;;;4970172;28;20041;-86
2022/08/04 01:29:57;;;;;;;1.02;0.35;;;17.40;99.90;;;;;;4969508;28;20039;-86
2022/08/04 01:32:23;;;;;;;1.48;0.30;;;;;;;;;;4968139;28;20042;-86
2022/08/04 01:34:54;;;;;;;0.30;0.30;;;17.30;99.90;;;;;;4968417;28;20030;-86
2022/08/04 01:38:00;;;;;;;1.80;0.52;;;17.80;99.90;;;;;;4967422;28;20033;-85
2022/08/04 01:40:27;;;;;;;1.25;0.65;;;;;;;;;;4967265;28;20531;-85
2022/08/04 01:42:53;;;;;;;0.90;0.50;;;;;;;;;;4966606;28;20030;-84
2022/08/04 01:45:19;;;;;;;1.45;0.77;;;;;;;;;;4964736;28;20034;-86
2022/08/04 01:47:50;;;;;;;1.17;0.40;;;17.40;99.90;;;;;;4962796;28;20519;-85
2022/08/04 01:50:16;;;;;;;1.00;0.40;;;;;;;;;;4967380;28;20035;-84
2022/08/04 01:52:44;;;;;;;1.02;0.52;;;17.20;99.90;;;;;;4970487;28;20046;-85
2022/08/04 01:55:12;;;;;;;0.73;0.40;;;17.20;99.90;;;;;;4960477;28;20125;-85
2022/08/04 01:57:50;;;;;;;1.70;0.82;;;17.10;99.90;;;;;;4970519;28;20034;-85
2022/08/04 02:00:26;;;;;;;0.70;0.38;;;16.70;99.90;;;;;;4968327;28;20023;-85
2022/08/04 02:02:52;;;;;;;1.17;0.55;;;17.10;99.90;;;;;;4967135;28;20046;-86
2022/08/04 02:05:20;;;;;;;1.85;0.60;;;17.30;99.90;;;;;;4967636;28;20039;-86
2022/08/04 02:08:02;;;;;;;0.73;0.50;;;17.40;99.90;;;;;;4967507;28;20031;-85
2022/08/04 02:10:56;;;;;;;2.53;0.55;;;16.70;99.90;;;;;;4964277;28;20031;-86
2022/08/04 02:13:49;;;;;;;1.00;0.40;;;17.70;99.90;;;;;;4968083;28;20106;-85
2022/08/04 02:16:36;;;;;;;1.48;0.60;;;16.90;99.90;;;;;;4968491;28;20042;-85
2022/08/04 02:19:23;;;;;;;1.60;0.68;;;16.90;99.90;;;;;;4964675;28;20043;-86
2022/08/04 02:21:56;;;;;;;0.60;0.30;;;17.00;99.90;;;;;;4964113;28;20035;-86
2022/08/04 02:24:26;;;;;;;0.90;0.47;;;17.60;99.90;;;;;;4958134;28;20030;-86
2022/08/04 02:26:54;;;;;;;2.08;0.70;;;17.10;99.90;;;;;;4961040;28;20023;-87
2022/08/04 02:29:33;;;;;;;0.95;0.70;;;17.10;99.90;;;;;;4961710;28;20042;-87
2022/08/04 02:32:01;;;;;;;2.00;0.80;;;;;;;;;;4964362;28;20105;-86
2022/08/04 02:34:31;;;;;;;2.28;0.60;;;16.90;99.90;;;;;;4963868;28;20066;-87
2022/08/04 02:36:59;;;;;;;0.95;0.60;;;17.00;99.90;;;;;;4962520;28;20122;-86
2022/08/04 02:39:30;;;;;;;1.17;0.50;;;17.00;99.90;;;;;;4965587;28;20121;-85
2022/08/04 02:41:56;;;;;;;1.95;0.47;;;;;;;;;;4964320;28;20045;-85
2022/08/04 02:44:25;;;;;;;2.67;0.98;;;16.80;99.90;;;;;;4963932;28;20027;-85
2022/08/04 02:46:53;;;;;;;1.02;0.40;;;16.90;99.90;;;;;;4965877;28;20054;-86
2022/08/04 02:49:22;;;;;;;1.10;0.60;;;16.90;99.90;;;;;;4963991;28;20411;-84
2022/08/04 02:51:55;;;;;;;1.30;0.50;;;16.60;99.90;;;;;;4965832;28;20039;-86
2022/08/04 02:54:33;;;;;;;0.70;0.30;;;16.90;99.90;;;;;;4980131;28;20034;-87
2022/08/04 02:57:00;;;;;;;0.90;0.52;;;;;;;;;;4966248;28;20030;-85
2022/08/04 02:59:27;;;;;;;1.08;0.50;;;16.70;99.90;;;;;;4964582;28;20049;-86
2022/08/04 03:01:56;;;;;;;1.13;0.43;;;;;;;;;;4962959;28;20038;-85
2022/08/04 03:04:44;;;;;;;1.35;0.60;;;16.80;99.90;;;;;;4951553;28;20038;-85
2022/08/04 03:07:33;;;;;;;1.05;0.40;;;16.50;99.90;;;;;;4960290;28;20042;-85
2022/08/04 03:09:59;;;;;;;1.13;0.65;;;;;;;;;;4960636;28;20042;-84
2022/08/04 03:12:59;;;;;;;1.33;0.57;;;17.30;99.90;;;;;;4963218;28;20039;-85
2022/08/04 03:15:25;;;;;;;1.45;0.38;;;;;;;;;;4961733;28;20105;-84
2022/08/04 03:18:20;;;;;;;1.50;0.60;;;16.40;99.90;;;;;;4954325;28;20034;-84
2022/08/04 03:20:45;;;;;;;1.30;0.60;;;;;;;;;;4952220;28;20134;-85
2022/08/04 03:23:31;;;;;;;1.20;0.50;;;16.30;99.90;;;;;;4959229;28;20030;-84
2022/08/04 03:26:38;;;;;;;1.02;0.75;;;17.40;99.90;;;;;;4958370;28;20126;-86
2022/08/04 03:29:16;;;;;;;1.15;0.60;;;16.20;99.90;;;;;;4941350;28;20042;-86
2022/08/04 03:32:13;;;;;;;1.17;0.60;;;16.20;99.90;;;;;;4962438;28;20677;-85
2022/08/04 03:34:56;;;;;;;0.75;0.50;;;17.10;99.90;;;;;;4960223;28;20039;-85
2022/08/04 03:37:35;;;;;;;;;;;16.90;99.90;;;;;;4961072;28;20039;-83
2022/08/04 03:40:28;;;;;;;1.17;0.40;;;16.40;99.90;;;;;;4954178;28;19918;-84
2022/08/04 03:42:54;;;;;;;1.08;0.43;;;;;;;;;;4964685;28;20023;-87
2022/08/04 03:45:41;;;;;;;0.93;0.65;;;16.60;99.90;;;;;;4965343;28;20045;-86
2022/08/04 03:48:24;;;;;;;1.42;0.57;;;16.50;99.90;;;;;;4963294;28;20050;-85
2022/08/04 03:54:12;;;;;;;1.60;0.63;;;;;;;;;;4965072;28;20064;-84
2022/08/04 03:57:10;;;;;;;1.30;0.50;;;16.50;99.90;;;;;;4961169;28;20090;-86
2022/08/04 03:59:36;;;;;;;1.10;0.70;;;;;;;;;;4959796;28;20488;-84
2022/08/04 04:02:07;;;;;;;0.47;0.38;;;16.70;99.90;;;;;;4959909;28;20050;-85
2022/08/04 04:04:48;;;;;;;0.93;0.52;;;15.60;99.90;;;;;;4961640;28;20085;-85
2022/08/04 04:07:43;;;;;;;3.08;0.95;;;16.40;99.90;;;;;;4963306;28;20023;-85
2022/08/04 04:10:17;;;;;;;1.75;0.50;;;16.90;99.90;;;;;;4960236;28;20696;-86
2022/08/04 04:13:07;;;;;;;3.08;1.10;;;16.60;99.90;;;;;;4966704;28;20081;-87
2022/08/04 04:15:33;;;;;;;0.80;0.40;;;;;;;;;;4962835;28;20062;-86
2022/08/04 04:18:14;;;;;;;0.80;0.50;;;16.90;99.90;;;;;;4968064;28;20074;-85
2022/08/04 04:20:58;;;;;;;1.27;0.75;;;16.00;99.90;;;;;;4968383;28;20043;-86
2022/08/04 04:23:38;;;;;;;1.58;0.90;;;16.60;99.90;;;;;;4977948;28;20104;-84
2022/08/04 04:26:03;;;;;;;1.00;0.40;;;;;;;;;;4991853;28;20019;-84
2022/08/04 04:28:29;;;;;;;1.67;0.55;;;;;;;;;;4990852;28;20052;-84
2022/08/04 04:31:27;;;;;;;2.88;0.90;;;16.80;99.90;;;;;;4978747;28;20085;-85
2022/08/04 04:34:15;;;;;;;3.65;0.50;;;15.50;99.90;;;;;;4966884;28;20064;-85
2022/08/04 04:36:49;;;;;;;1.13;0.50;;;16.00;99.90;;;;;;4967716;28;20026;-83
2022/08/04 04:39:16;;;;;;;1.27;0.57;;;;;;;;;;4959600;28;20043;-84
2022/08/04 04:41:49;;;;;;;0.40;0.40;;;16.70;99.90;;;;;;4964320;28;20125;-84
2022/08/04 04:44:33;;;;;;;1.23;0.55;;;16.70;99.90;;;;;;4965601;28;20058;-83
2022/08/04 04:47:40;;;;;;;1.10;0.60;;;16.20;99.90;;;;;;4961116;28;20037;-83
2022/08/04 04:50:31;;;;;;;1.13;0.52;;;16.90;99.90;;;;;;4960934;28;20500;-83
2022/08/04 04:53:34;;;;;;;1.10;0.65;;;16.20;99.90;;;;;;4968871;28;20097;-82
2022/08/04 04:56:10;;;;;;;1.00;0.40;;;16.70;99.90;;;;;;4953150;28;20035;-83
2022/08/04 04:58:38;;;;;;;1.15;0.68;;;16.90;99.90;;;;;;4968558;28;20030;-83
2022/08/04 05:01:22;;;;;;;1.88;0.57;;;16.00;99.90;;;;;;4962157;28;20042;-83
2022/08/04 05:03:57;;;;;;;1.35;0.60;;;;;;;;;;4964576;28;20093;-84
2022/08/04 05:06:50;;;;;;;3.63;1.70;;;16.40;99.90;;;;;;4960454;28;20049;-84
2022/08/04 05:09:34;;;;;;;0.73;0.47;;;16.60;99.90;;;;;;4961633;28;20157;-82
2022/08/04 05:12:34;;;;;;;3.33;0.80;;;16.70;99.90;;;;;;4967273;28;20042;-80
2022/08/04 05:15:06;;;;;;;1.90;0.65;;;17.00;99.90;;;;;;4962167;28;20045;-79
2022/08/04 05:17:31;;;;;;;1.35;0.40;;;;;;;;;;4953306;28;20023;-81
2022/08/04 05:20:13;;;;;;;2.08;0.90;;;17.00;99.90;;;;;;4961324;28;20395;-80
2022/08/04 05:22:55;;;;;;;1.33;0.50;;;17.80;99.90;;;;;;4958144;28;20047;-79
2022/08/04 05:25:41;;;;;;;1.42;0.80;;;17.80;99.90;;;;;;4964160;28;20509;-79
2022/08/04 05:28:07;;;;;;;2.65;0.73;;;17.20;99.90;;;;;;4965255;28;20027;-80
2022/08/04 05:30:37;;;;;;;1.55;0.65;;;17.40;99.90;;;;;;4968292;28;20550;-80
2022/08/04 05:33:08;;;;;;;0.70;0.50;;;17.50;99.90;;;;;;4968954;28;20042;-81
2022/08/04 05:35:39;;;;;;;1.48;0.60;;;17.50;99.90;;;;;;4962490;28;20038;-81
2022/08/04 05:38:06;;;;;;;1.15;0.70;;;17.70;99.90;;;;;;4958700;28;20031;-80
2022/08/04 05:40:32;;;;;;;1.80;0.73;;;;;;;;;;4962798;28;20050;-81
2022/08/04 05:43:00;;;;;;;1.75;0.65;;;17.90;99.90;;;;;;4969363;28;20058;-80
2022/08/04 05:45:27;;;;;;;1.98;0.73;;;18.80;99.90;;;;;;4967446;28;20035;-81
2022/08/04 05:47:53;;;;;;;2.13;1.05;;;18.10;99.90;;;;;;4959978;28;20030;-81
2022/08/04 05:50:19;;;;;;;2.13;1.15;;;;;;;;;;4968810;28;20088;-80
2022/08/04 05:52:46;;;;;;;1.10;0.63;;;18.80;99.90;;;;;;4963388;28;20039;-81
2022/08/04 05:55:12;;;;;;;1.33;0.60;;;17.80;99.90;;;;;;4966049;28;20110;-82
2022/08/04 05:57:40;;;;;;;2.10;0.75;;;18.10;99.90;;;;;;4969400;28;20109;-79
2022/08/04 06:00:07;;;;;;;14.10;1.40;;;19.00;99.90;;;;;;4971297;28;20118;-82
2022/08/04 06:02:34;;;;;;;2.13;1.23;;;19.10;99.90;;;;;;4966125;28;20106;-82
2022/08/04 06:05:01;;;;;;;0.88;0.68;;;19.10;99.90;;;;;;4962694;28;20106;-81
2022/08/04 06:07:27;;;;;;;2.03;0.65;;;;;;;;;;4968352;28;20041;-81
2022/08/04 06:09:53;;;;;;;1.20;0.65;;;19.20;99.90;;;;;;4963999;28;20026;-82
2022/08/04 06:12:48;;;;;;;1.48;0.60;;;19.90;99.90;;;;;;4961455;28;20042;-82
2022/08/04 06:15:18;;;;;;;3.25;1.00;;;20.20;99.90;;;;;;4962927;28;20041;-82
2022/08/04 06:17:55;;;;;;;1.13;0.75;;;19.60;99.90;;;;;;4964928;28;20085;-82
2022/08/04 06:20:25;;;;;;;1.75;0.70;;;19.70;99.90;;;;;;4974366;28;20073;-82
2022/08/04 06:22:54;;;;;;;1.85;0.75;;;20.30;99.90;;;;;;4963188;28;20480;-82
2022/08/04 06:25:27;;;;;;;2.80;0.70;;;20.50;99.90;;;;;;4964323;28;20035;-81
2022/08/04 06:27:53;;;;;;;;;;;19.60;99.90;;;;;;4968323;28;20113;-81
2022/08/04 06:30:24;;;;;;;1.85;0.85;;;20.60;99.90;;;;;;4975557;28;19918;-85
2022/08/04 06:32:59;;;;;;;0.75;0.52;;;;;;;;;;4962742;28;20041;-85
2022/08/04 06:35:25;;;;;;;2.25;0.80;;;21.00;99.90;;;;;;4973201;28;20141;-85
2022/08/04 06:37:53;;;;;;;0.98;0.50;;;21.30;99.90;;;;;;4976026;28;20050;-84
2022/08/04 06:40:22;;;;;;;1.40;0.50;;;21.60;99.90;;;;;;4978746;28;20090;-84
2022/08/04 06:42:49;;;;;;;1.10;0.40;;;23.00;99.90;;;;;;4971382;28;20035;-84
2022/08/04 06:45:15;;;;;;;3.00;0.93;;;;;;;;;;4970705;28;20562;-86
2022/08/04 06:47:42;;;;;;;0.98;0.40;;;23.00;99.90;;;;;;4971280;28;20030;-85
2022/08/04 06:50:11;;;;;;;1.13;0.60;;;24.80;99.90;;;;;;4967018;28;20030;-85
2022/08/04 06:52:37;;;;;;;2.22;0.75;;;;;;;;;;4968799;28;20479;-85
2022/08/04 06:55:04;;;;;;;1.50;0.70;;;26.20;95.60;;;;;;4976453;28;20030;-85
2022/08/04 06:57:31;;;;;;;4.15;0.40;;;27.20;97.70;;;;;;4976026;28;20031;-83
2022/08/04 07:00:08;;;;;;;0.55;0.40;;;29.30;95.00;;;;;;4958757;28;20034;-84
2022/08/04 07:02:45;;;;;;;1.73;0.45;;;30.80;77.90;;;;;;4961217;28;20072;-84
2022/08/04 07:05:11;;;;;;;0.88;0.38;;;;;;;;;;4972056;28;20132;-84
2022/08/04 07:07:39;;;;;;;1.30;0.52;;;32.60;67.30;;;;;;4968841;28;20062;-86
2022/08/04 07:10:05;;;;;;;1.23;0.35;;;33.50;75.80;;;;;;4974595;28;20081;-84
2022/08/04 07:12:31;;;;;;;4.38;0.38;;;;;;;;;;4971488;28;20133;-84
2022/08/04 07:14:58;;;;;;;1.08;0.63;;;;;;;;;;4969267;28;20038;-85
2022/08/04 07:17:24;;;;;;;0.93;0.40;;;31.90;64.10;;;;;;4969077;28;20119;-85
2022/08/04 07:19:51;;;;;;;0.82;0.40;;;;;;;;;;4970721;28;20031;-86
2022/08/04 07:22:19;;;;;;;0.43;0.25;;;31.10;64.80;;;;;;4970305;28;20034;-85
2022/08/04 07:24:45;;;;;;;1.77;0.40;;;;;;;;;;4964968;28;20054;-84
2022/08/04 07:27:11;;;;;;;4.13;0.40;;;;;;;;;;4962888;28;20042;-83
2022/08/04 07:29:38;;;;;;;0.77;0.40;;;30.50;63.90;;;;;;4963118;28;20045;-85
2022/08/04 07:32:05;;;;;;;0.82;0.40;;;30.10;72.20;;;;;;4963055;28;20046;-85
2022/08/04 07:34:31;;;;;;;1.55;0.45;;;;;;;;;;4972932;28;20027;-85
2022/08/04 07:36:59;;;;;;;0.95;0.50;;;29.60;65.60;;;;;;4967400;28;20046;-86
2022/08/04 07:39:27;;;;;;;0.65;0.30;;;28.80;66.80;;;;;;4968227;28;20135;-85
2022/08/04 07:41:54;;;;;;;0.57;0.40;;;28.40;65.40;;;;;;4978515;28;20470;-85
2022/08/04 07:44:20;;;;;;;1.08;0.52;;;;;;;;;;4981682;28;20062;-85
2022/08/04 07:46:46;;;;;;;1.17;0.55;;;;;;;;;;4978915;28;20050;-85
2022/08/04 07:49:12;;;;;;;0.75;0.40;;;;;;;;;;4975925;28;20034;-86
2022/08/04 07:51:39;;;;;;;0.52;0.30;;;28.90;67.40;;;;;;4970272;28;20035;-86
2022/08/04 07:54:08;;;;;;;1.80;0.43;;;;;;;;;;4981324;28;20030;-85
2022/08/04 07:56:36;;;;;;;2.55;0.60;;;29.00;67.70;;;;;;4992983;28;20015;-86
2022/08/04 07:59:03;;;;;;;1.08;0.50;;;;;;;;;;4977284;28;20066;-83
2022/08/04 08:01:29;;;;;;;0.82;0.47;;;;;;;;;;4978017;28;20417;-86
2022/08/04 08:03:56;;;;;;;1.08;0.40;;;28.40;61.30;;;;;;4967811;28;20073;-86
2022/08/04 08:06:22;;;;;;;1.30;0.52;;;;;;;;;;4970468;28;20019;-86
2022/08/04 08:08:48;;;;;;;0.60;0.30;;;;;;;;;;4974868;28;20109;-85
2022/08/04 08:11:15;;;;;;;1.00;0.52;;;28.70;59.50;;;;;;4975346;28;20063;-85
2022/08/04 08:13:43;;;;;;;1.77;0.93;;;;;;;;;;4967379;28;20034;-87
2022/08/04 08:16:09;;;;;;;1.50;0.57;;;;;;;;;;4967146;28;20045;-85
2022/08/04 08:18:35;;;;;;;0.82;0.20;;;;;;;;;;4972776;28;20030;-85
2022/08/04 08:21:01;;;;;;;0.25;0.20;;;;;;;;;;4965806;28;20634;-85
2022/08/04 08:23:30;;;;;;;2.40;0.40;;;29.20;57.60;;;;;;4973511;28;20126;-84
2022/08/04 08:25:56;;;;;;;1.33;0.43;;;;;;;;;;4971524;28;20027;-86
2022/08/04 08:28:22;;;;;;;0.73;0.35;;;;;;;;;;4972797;28;20039;-85
2022/08/04 08:30:48;;;;;;;0.85;0.40;;;;;;;;;;4964019;28;20043;-84
2022/08/04 08:33:14;;;;;;;0.57;0.38;;;30.30;66.60;;;;;;4963613;28;20030;-84
2022/08/04 08:36:03;;;;;;;0.47;0.30;;;30.80;55.70;;;;;;4968366;28;20026;-86
2022/08/04 08:38:36;;;;;;;1.15;0.52;;;31.30;52.10;;;;;;4973969;28;20399;-87
2022/08/04 08:41:22;;;;;;;1.08;0.30;;;32.50;51.30;;;;;;4968620;28;20031;-85
2022/08/04 08:43:53;;;;;;;0.88;0.40;;;33.80;56.80;;;;;;4960876;28;20030;-86
2022/08/04 08:46:37;;;;;;;1.58;0.90;;;35.40;53.40;;;;;;4965402;28;20042;-85
2022/08/04 08:49:28;;;;;;;0.65;0.40;;;37.20;48.30;;;;;;4970231;28;20498;-87
2022/08/04 08:51:59;;;;;;;2.50;0.47;;;;;;;;;;4973178;28;20131;-83
2022/08/04 08:54:53;;;;;;;0.98;0.35;;;41.00;42.70;;;;;;4973073;28;21332;-86
2022/08/04 08:57:24;;;;;;;0.55;0.30;;;42.20;33.10;;;;;;4971603;28;20039;-85
2022/08/04 09:00:15;;;;;;;0.65;0.20;;;42.40;37.40;;;;;;4978871;28;20026;-85
2022/08/04 09:03:16;;;;;;;0.82;0.30;;;43.60;36.40;;;;;;4968391;28;20030;-87
2022/08/04 09:05:56;;;;;;;0.47;0.20;;;43.80;34.80;;;;;;4976748;28;20026;-85
2022/08/04 09:08:49;;;;;;;0.55;0.30;;;44.20;28.00;;;;;;4972558;28;20070;-85
2022/08/04 09:11:19;;;;;;;1.83;0.50;;;43.90;32.60;;;;;;4975441;28;20611;-86
2022/08/04 09:13:45;;;;;;;2.55;0.40;;;;;;;;;;4972728;28;20030;-88
2022/08/04 09:16:23;;;;;;;0.30;0.20;;;44.70;33.80;;;;;;4966379;28;20034;-86
2022/08/04 09:19:14;;;;;;;0.40;0.25;;;44.70;33.00;;;;;;4973892;28;20105;-85
2022/08/04 09:21:58;;;;;;;1.20;0.40;;;45.30;31.90;;;;;;4978945;28;20057;-85
2022/08/04 09:25:01;;;;;;;0.68;0.30;;;45.60;32.30;;;;;;4971244;28;22909;-86
2022/08/04 09:27:40;;;;;;;0.50;0.30;;;44.40;27.50;;;;;;4976491;28;20031;-86
2022/08/04 09:30:08;;;;;;;1.60;0.45;;;43.00;27.80;;;;;;4973279;28;20094;-85
2022/08/04 09:32:58;;;;;;;0.55;0.32;;;41.00;30.00;;;;;;4975994;28;20045;-85
2022/08/04 09:35:43;;;;;;;1.33;0.50;;;39.10;39.30;;;;;;4988374;28;20118;-84
2022/08/04 09:38:34;;;;;;;2.67;0.25;;;38.10;34.00;;;;;;4989591;28;20377;-84
2022/08/04 09:41:09;;;;;;;5.97;0.83;;;36.60;41.80;;;;;;4983875;28;20110;-84
2022/08/04 09:44:11;;;;;;;0.93;0.30;;;37.10;44.30;;;;;;4968308;28;20293;-82
2022/08/04 09:46:50;;;;;;;1.50;0.40;;;36.30;44.60;;;;;;4963897;28;20042;-84
2022/08/04 09:49:28;;;;;;;1.52;0.43;;;35.90;37.10;;;;;;4968697;28;20405;-84
2022/08/04 09:52:22;;;;;;;12.32;0.57;;;35.30;36.10;;;;;;4971088;28;20044;-83
2022/08/04 09:54:57;;;;;;;1.25;0.30;;;34.90;42.80;;;;;;4970359;28;20110;-82
2022/08/04 09:57:35;;;;;;;0.32;0.20;;;;;;;;;;4969996;28;20038;-83
2022/08/04 10:00:12;;;;;;;0.43;0.20;;;35.50;37.50;;;;;;4965877;28;20106;-83
2022/08/04 10:02:41;;;;;;;2.17;0.50;;;35.50;38.60;;;;;;4970465;28;20045;-85
2022/08/04 10:05:20;;;;;;;0.77;0.30;;;34.70;39.80;;;;;;4969654;28;20066;-84
2022/08/04 10:08:28;;;;;;;3.22;0.40;;;34.90;38.60;;;;;;4967352;28;20027;-85
2022/08/04 10:11:08;;;;;;;3.25;0.47;;;34.80;37.10;;;;;;4976647;28;20074;-84
2022/08/04 10:13:56;;;;;;;1.15;0.30;;;34.60;39.70;;;;;;4963725;28;20074;-84
2022/08/04 10:16:44;;;;;;;0.88;0.45;;;35.20;39.80;;;;;;4961660;28;20427;-84
2022/08/04 10:19:24;;;;;;;1.08;0.40;;;35.10;37.60;;;;;;4971549;28;20042;-84
2022/08/04 10:22:20;;;;;;;1.80;0.60;;;35.00;46.40;;;;;;4968769;28;20030;-84
2022/08/04 10:25:29;;;;;;;4.15;0.55;;;35.00;45.00;;;;;;4966763;28;20031;-82
2022/08/04 10:28:01;;;;;;;2.17;0.40;;;34.90;38.60;;;;;;4966724;28;20070;-84
2022/08/04 10:30:31;;;;;;;0.63;0.30;;;35.00;38.50;;;;;;4964336;28;20369;-83
2022/08/04 10:33:18;;;;;;;1.05;0.40;;;35.20;37.20;;;;;;4962214;28;20038;-82
2022/08/04 10:35:49;;;;;;;1.52;0.57;;;35.00;37.70;;;;;;4967248;28;20085;-84
2022/08/04 10:38:30;;;;;;;0.40;0.28;;;35.00;45.80;;;;;;4962145;28;20042;-81
2022/08/04 10:41:15;;;;;;;0.50;0.32;;;35.20;37.10;;;;;;4967667;28;20031;-84
2022/08/04 10:43:45;;;;;;;0.80;0.32;;;35.00;35.70;;;;;;4970535;28;20050;-83
2022/08/04 10:46:28;;;;;;;2.20;0.30;;;34.90;40.70;;;;;;4961942;28;20030;-84
2022/08/04 10:49:05;;;;;;;1.42;0.50;;;35.20;36.50;;;;;;4969527;28;20542;-84
2022/08/04 10:51:49;;;;;;;5.47;0.60;;;31.50;35.10;;;;;;4968897;28;20097;-83
2022/08/04 10:54:46;;;;;;;2.25;0.40;;;35.10;36.80;;;;;;4964595;28;20049;-85
2022/08/04 10:57:29;;;;;;;0.82;0.50;;;35.40;38.10;;;;;;4966488;28;20034;-86
2022/08/04 10:59:55;;;;;;;1.65;0.40;;;;;;;;;;4966880;28;20140;-84
2022/08/04 11:02:41;;;;;;;0.85;0.50;;;35.60;36.70;;;;;;4974589;28;20314;-81
2022/08/04 11:05:13;;;;;;;0.47;0.22;;;35.50;44.60;;;;;;4968918;28;20454;-83
2022/08/04 11:07:42;;;;;;;0.50;0.30;;;35.30;36.30;;;;;;4963166;28;20026;-84
2022/08/04 11:10:08;;;;;;;3.55;0.20;;;;;;;;;;4973052;28;20391;-84
2022/08/04 11:12:36;;;;;;;1.17;0.40;;;35.80;36.80;;;;;;4960551;28;20126;-82
2022/08/04 11:15:15;;;;;;;2.47;0.40;;;35.60;36.60;;;;;;4968866;28;20089;-84
2022/08/04 11:17:45;;;;;;;0.95;0.50;;;35.20;35.70;;;;;;4965938;28;20030;-83
2022/08/04 11:20:27;;;;;;;0.93;0.47;;;35.50;35.10;;;;;;4969141;28;20067;-82
2022/08/04 11:23:07;;;;;;;;;;;35.50;35.70;;;;;;4963492;28;20061;-81
2022/08/04 11:25:52;;;;;;;0.95;0.40;;;35.00;44.30;;;;;;4967135;28;20535;-81
2022/08/04 11:28:38;;;;;;;0.43;0.30;;;34.90;37.10;;;;;;4968812;28;20031;-85
2022/08/04 11:31:13;;;;;;;1.02;0.40;;;34.50;40.10;;;;;;4959450;28;20109;-86
2022/08/04 11:34:03;;;;;;;0.68;0.38;;;34.60;38.50;;;;;;4960668;28;20042;-84
2022/08/04 11:37:01;;;;;;;1.30;0.68;;;34.70;45.10;;;;;;4963460;28;20034;-83
2022/08/04 11:39:29;;;;;;;0.77;0.32;;;35.20;46.50;;;;;;4960169;28;20035;-87
2022/08/04 11:41:58;;;;;;;2.95;0.32;;;;;;;;;;4971032;28;20023;-86
2022/08/04 11:44:46;;;;;;;0.63;0.43;;;35.50;37.70;;;;;;4966634;28;20038;-85
2022/08/04 11:47:31;;;;;;;1.17;0.65;;;35.80;36.50;;;;;;4966819;28;20037;-84
2022/08/04 11:50:04;;;;;;;0.77;0.40;;;;;;;;;;4966044;28;20447;-86
2022/08/04 11:52:32;;;;;;;3.05;1.00;;;35.80;35.70;;;;;;4965806;28;20061;-85
2022/08/04 11:55:01;;;;;;;1.15;0.57;;;36.30;36.80;;;;;;4965631;28;20062;-84
2022/08/04 11:57:27;;;;;;;1.60;0.40;;;;;;;;;;4961397;28;20028;-85
2022/08/04 11:59:56;;;;;;;1.38;0.52;;;36.30;35.50;;;;;;4969991;28;20023;-85
2022/08/04 12:02:22;;;;;;;1.15;0.40;;;;;;;;;;4963540;28;20698;-84
2022/08/04 12:04:59;;;;;;;1.90;0.70;;;36.20;36.40;;;;;;4963639;28;20019;-86
2022/08/04 12:07:43;;;;;;;1.02;0.40;;;36.50;36.20;;;;;;4973133;28;20275;-86
2022/08/04 12:10:37;;;;;;;0.95;0.50;;;36.50;35.80;;;;;;4979208;28;20065;-85
2022/08/04 12:13:39;;;;;;;0.50;0.30;;;36.20;35.70;;;;;;4964084;28;20067;-81
2022/08/04 12:16:25;;;;;;;2.45;0.40;;;36.10;35.30;;;;;;4971008;28;20031;-86
2022/08/04 12:18:57;;;;;;;0.90;0.40;;;36.30;35.70;;;;;;4965336;28;20034;-88
2022/08/04 12:21:42;;;;;;;2.38;0.98;;;36.00;36.10;;;;;;4970512;28;20034;-83
2022/08/04 12:24:21;;;;;;;1.48;0.68;;;36.30;37.90;;;;;;4964824;28;20126;-87
2022/08/04 12:26:54;;;;;;;0.68;0.30;;;35.60;37.40;;;;;;4976491;28;20040;-87
2022/08/04 12:29:21;;;;;;;0.82;0.50;;;35.70;37.20;;;;;;4967705;28;20809;-86
2022/08/04 12:31:52;;;;;;;2.55;0.77;;;35.10;37.30;;;;;;4971383;28;20038;-86
2022/08/04 12:34:34;;;;;;;0.82;0.38;;;35.50;44.60;;;;;;4973373;28;20486;-84
2022/08/04 12:37:36;;;;;;;0.40;0.40;;;35.50;36.60;;;;;;4963243;28;20460;-89
2022/08/04 12:40:08;;;;;;;0.77;0.45;;;35.60;37.30;;;;;;4959713;28;20035;-87
2022/08/04 12:42:39;;;;;;;1.15;0.50;;;35.00;45.40;;;;;;4967450;28;20245;-87
2022/08/04 12:45:07;;;;;;;1.00;0.40;;;34.80;37.80;;;;;;4955835;28;21117;-87
2022/08/04 12:47:35;;;;;;;0.63;0.32;;;34.80;37.80;;;;;;4962529;28;20027;-88
2022/08/04 12:50:02;;;;;;;1.15;0.50;;;35.00;37.20;;;;;;4964879;28;20034;-86
2022/08/04 12:52:31;;;;;;;0.88;0.57;;;35.60;35.70;;;;;;4968420;28;20046;-86
2022/08/04 12:54:58;;;;;;;5.10;0.50;;;35.90;36.40;;;;;;4973680;28;20018;-84
2022/08/04 12:57:25;;;;;;;0.68;0.43;;;;;;;;;;4975940;28;20034;-83
2022/08/04 12:59:51;;;;;;;1.15;0.40;;;;;;;;;;4971624;28;20038;-87
2022/08/04 13:02:25;;;;;;;1.52;1.02;;;36.70;45.50;;;;;;4962677;28;20396;-85
2022/08/04 13:04:53;;;;;;;0.63;0.30;;;37.10;36.00;;;;;;4974247;28;20037;-87
2022/08/04 13:07:22;;;;;;;0.85;0.40;;;37.00;34.60;;;;;;4970525;28;20092;-84
2022/08/04 13:09:48;;;;;;;1.20;0.40;;;;;;;;;;4977440;28;20100;-86
2022/08/04 13:12:19;;;;;;;1.13;0.35;;;37.20;34.40;;;;;;4967763;28;20070;-87
2022/08/04 13:14:49;;;;;;;0.93;0.52;;;37.00;34.30;;;;;;4974309;28;20259;-89
2022/08/04 13:17:15;;;;;;;2.53;0.50;;;;;;;;;;4972066;28;20038;-88
2022/08/04 13:19:47;;;;;;;2.42;0.50;;;37.80;45.30;;;;;;4967501;28;20033;-86
2022/08/04 13:22:15;;;;;;;0.95;0.50;;;37.70;34.80;;;;;;4970816;28;20495;-88
2022/08/04 13:24:42;;;;;;;1.15;0.60;;;37.00;33.80;;;;;;4969711;28;20058;-87
2022/08/04 13:27:12;;;;;;;0.63;0.40;;;37.50;34.60;;;;;;4971464;28;20392;-87
2022/08/04 13:29:44;;;;;;;1.67;0.70;;;37.40;34.60;;;;;;4963237;28;20114;-85
2022/08/04 13:32:14;;;;;;;0.60;0.30;;;37.00;33.50;;;;;;4968434;28;20034;-87
2022/08/04 13:34:42;;;;;;;1.15;0.47;;;37.30;35.00;;;;;;4962548;28;20039;-88
2022/08/04 13:37:09;;;;;;;0.55;0.25;;;37.00;33.60;;;;;;4968577;28;20026;-87
2022/08/04 13:39:38;;;;;;;1.92;0.50;;;36.70;33.70;;;;;;4966178;28;20039;-86
2022/08/04 13:42:11;;;;;;;1.25;0.50;;;37.20;34.30;;;;;;4969082;28;20054;-87
2022/08/04 13:44:37;;;;;;;0.93;0.50;;;36.80;42.20;;;;;;4964606;28;20030;-87
2022/08/04 13:47:07;;;;;;;1.00;0.43;;;37.00;35.00;;;;;;4974662;28;20418;-83
2022/08/04 13:49:33;;;;;;;0.70;0.40;;;;;;;;;;4971651;28;20039;-89
2022/08/04 13:52:02;;;;;;;0.90;0.43;;;36.70;33.10;;;;;;4969873;28;20102;-86
2022/08/04 13:54:42;;;;;;;0.90;0.57;;;36.80;34.10;;;;;;4967229;28;20594;-87
2022/08/04 13:57:13;;;;;;;1.05;0.60;;;37.30;34.40;;;;;;4970156;28;20026;-89